sensor_id;sensor_type;location;lat;lon;timestamp;P1;durP1;ratioP1;P2;durP2;ratioP2
71759;SDS011;59919;48.112;16.280;2024-03-02T00:00:30;13.57;;;10.75;;
71759;SDS011;59919;48.112;16.280;2024-03-02T00:03:05;14.02;;;10.52;;
71759;SDS011;59919;48.112;16.280;2024-03-02T00:05:40;12.05;;;10.45;;
71759;SDS011;59919;48.112;16.280;2024-03-02T00:08:14;13.65;;;10.70;;
71759;SDS011;59919;48.112;16.280;2024-03-02T00:10:59;13.27;;;10.10;;
71759;SDS011;59919;48.112;16.280;2024-03-02T00:13:33;14.68;;;11.02;;
71759;SDS011;59919;48.112;16.280;2024-03-02T00:16:08;12.82;;;10.75;;
71759;SDS011;59919;48.112;16.280;2024-03-02T00:18:42;15.23;;;11.23;;
71759;SDS011;59919;48.112;16.280;2024-03-02T00:21:13;15.05;;;10.63;;
71759;SDS011;59919;48.112;16.280;2024-03-02T00:23:45;13.45;;;11.23;;
71759;SDS011;59919;48.112;16.280;2024-03-02T00:26:16;13.95;;;10.75;;
71759;SDS011;59919;48.112;16.280;2024-03-02T00:28:47;14.63;;;10.80;;
71759;SDS011;59919;48.112;16.280;2024-03-02T00:33:56;13.00;;;10.32;;
71759;SDS011;59919;48.112;16.280;2024-03-02T00:36:34;12.65;;;11.02;;
71759;SDS011;59919;48.112;16.280;2024-03-02T00:39:07;13.57;;;10.02;;
71759;SDS011;59919;48.112;16.280;2024-03-02T00:41:38;18.08;;;10.50;;
71759;SDS011;59919;48.112;16.280;2024-03-02T00:44:14;12.52;;;10.15;;
71759;SDS011;59919;48.112;16.280;2024-03-02T00:46:48;14.70;;;10.95;;
71759;SDS011;59919;48.112;16.280;2024-03-02T00:49:23;16.25;;;10.35;;
71759;SDS011;59919;48.112;16.280;2024-03-02T00:51:55;13.43;;;10.48;;
71759;SDS011;59919;48.112;16.280;2024-03-02T00:54:26;21.02;;;10.77;;
71759;SDS011;59919;48.112;16.280;2024-03-02T00:56:59;13.70;;;10.23;;
71759;SDS011;59919;48.112;16.280;2024-03-02T00:59:30;12.32;;;10.82;;
71759;SDS011;59919;48.112;16.280;2024-03-02T01:02:04;13.48;;;11.05;;
71759;SDS011;59919;48.112;16.280;2024-03-02T01:04:41;13.50;;;10.57;;
71759;SDS011;59919;48.112;16.280;2024-03-02T01:07:17;14.05;;;10.23;;
71759;SDS011;59919;48.112;16.280;2024-03-02T01:09:51;12.75;;;10.82;;
71759;SDS011;59919;48.112;16.280;2024-03-02T01:12:23;14.57;;;10.82;;
71759;SDS011;59919;48.112;16.280;2024-03-02T01:14:58;11.60;;;9.93;;
71759;SDS011;59919;48.112;16.280;2024-03-02T01:17:29;14.25;;;10.15;;
71759;SDS011;59919;48.112;16.280;2024-03-02T01:20:01;12.85;;;10.15;;
71759;SDS011;59919;48.112;16.280;2024-03-02T01:22:35;12.40;;;10.32;;
71759;SDS011;59919;48.112;16.280;2024-03-02T01:25:08;14.30;;;10.57;;
71759;SDS011;59919;48.112;16.280;2024-03-02T01:27:42;14.07;;;11.20;;
71759;SDS011;59919;48.112;16.280;2024-03-02T01:30:16;14.63;;;10.45;;
71759;SDS011;59919;48.112;16.280;2024-03-02T01:32:47;12.05;;;9.70;;
71759;SDS011;59919;48.112;16.280;2024-03-02T01:35:18;11.60;;;9.60;;
71759;SDS011;59919;48.112;16.280;2024-03-02T01:37:52;12.88;;;10.10;;
71759;SDS011;59919;48.112;16.280;2024-03-02T01:40:23;12.55;;;9.57;;
71759;SDS011;59919;48.112;16.280;2024-03-02T01:43:14;11.23;;;9.68;;
71759;SDS011;59919;48.112;16.280;2024-03-02T01:45:47;11.68;;;9.73;;
71759;SDS011;59919;48.112;16.280;2024-03-02T01:48:18;12.88;;;10.50;;
71759;SDS011;59919;48.112;16.280;2024-03-02T01:50:50;13.52;;;11.02;;
71759;SDS011;59919;48.112;16.280;2024-03-02T01:53:21;13.30;;;11.00;;
71759;SDS011;59919;48.112;16.280;2024-03-02T01:55:55;12.40;;;10.02;;
71759;SDS011;59919;48.112;16.280;2024-03-02T01:58:26;13.73;;;11.15;;
71759;SDS011;59919;48.112;16.280;2024-03-02T02:01:01;11.95;;;10.07;;
71759;SDS011;59919;48.112;16.280;2024-03-02T02:03:33;13.77;;;10.68;;
71759;SDS011;59919;48.112;16.280;2024-03-02T02:06:04;13.23;;;10.55;;
71759;SDS011;59919;48.112;16.280;2024-03-02T02:08:37;13.60;;;10.18;;
71759;SDS011;59919;48.112;16.280;2024-03-02T02:11:13;14.00;;;10.32;;
71759;SDS011;59919;48.112;16.280;2024-03-02T02:13:46;12.85;;;10.65;;
71759;SDS011;59919;48.112;16.280;2024-03-02T02:16:21;14.05;;;10.60;;
71759;SDS011;59919;48.112;16.280;2024-03-02T02:18:52;13.00;;;10.55;;
71759;SDS011;59919;48.112;16.280;2024-03-02T02:21:31;11.63;;;10.07;;
71759;SDS011;59919;48.112;16.280;2024-03-02T02:24:03;12.27;;;10.95;;
71759;SDS011;59919;48.112;16.280;2024-03-02T02:26:39;13.48;;;11.05;;
71759;SDS011;59919;48.112;16.280;2024-03-02T02:29:10;11.93;;;10.07;;
71759;SDS011;59919;48.112;16.280;2024-03-02T02:31:44;14.18;;;10.35;;
71759;SDS011;59919;48.112;16.280;2024-03-02T02:34:18;12.30;;;10.27;;
71759;SDS011;59919;48.112;16.280;2024-03-02T02:36:51;13.32;;;10.20;;
71759;SDS011;59919;48.112;16.280;2024-03-02T02:39:26;13.10;;;11.10;;
71759;SDS011;59919;48.112;16.280;2024-03-02T02:42:03;13.30;;;10.75;;
71759;SDS011;59919;48.112;16.280;2024-03-02T02:44:37;12.40;;;10.30;;
71759;SDS011;59919;48.112;16.280;2024-03-02T02:47:08;14.65;;;10.55;;
71759;SDS011;59919;48.112;16.280;2024-03-02T02:49:39;11.95;;;10.35;;
71759;SDS011;59919;48.112;16.280;2024-03-02T02:52:12;12.15;;;10.07;;
71759;SDS011;59919;48.112;16.280;2024-03-02T02:54:48;13.18;;;10.20;;
71759;SDS011;59919;48.112;16.280;2024-03-02T02:57:23;12.68;;;11.25;;
71759;SDS011;59919;48.112;16.280;2024-03-02T02:59:56;13.93;;;10.95;;
71759;SDS011;59919;48.112;16.280;2024-03-02T03:02:36;13.35;;;10.40;;
71759;SDS011;59919;48.112;16.280;2024-03-02T03:05:13;13.27;;;10.15;;
71759;SDS011;59919;48.112;16.280;2024-03-02T03:07:47;13.07;;;10.98;;
71759;SDS011;59919;48.112;16.280;2024-03-02T03:10:20;11.93;;;10.60;;
71759;SDS011;59919;48.112;16.280;2024-03-02T03:12:53;12.82;;;10.88;;
71759;SDS011;59919;48.112;16.280;2024-03-02T03:15:27;12.55;;;10.38;;
71759;SDS011;59919;48.112;16.280;2024-03-02T03:18:04;12.02;;;10.73;;
71759;SDS011;59919;48.112;16.280;2024-03-02T03:20:35;12.52;;;10.73;;
71759;SDS011;59919;48.112;16.280;2024-03-02T03:23:07;14.13;;;10.55;;
71759;SDS011;59919;48.112;16.280;2024-03-02T03:25:39;12.38;;;10.73;;
71759;SDS011;59919;48.112;16.280;2024-03-02T03:28:11;12.63;;;10.70;;
71759;SDS011;59919;48.112;16.280;2024-03-02T03:30:45;11.50;;;9.95;;
71759;SDS011;59919;48.112;16.280;2024-03-02T03:33:21;12.45;;;10.75;;
71759;SDS011;59919;48.112;16.280;2024-03-02T03:35:53;13.77;;;10.48;;
71759;SDS011;59919;48.112;16.280;2024-03-02T03:38:28;13.63;;;10.68;;
71759;SDS011;59919;48.112;16.280;2024-03-02T03:41:07;13.30;;;11.20;;
71759;SDS011;59919;48.112;16.280;2024-03-02T03:43:40;15.30;;;11.02;;
71759;SDS011;59919;48.112;16.280;2024-03-02T03:46:11;12.68;;;10.70;;
71759;SDS011;59919;48.112;16.280;2024-03-02T03:48:42;12.75;;;10.90;;
71759;SDS011;59919;48.112;16.280;2024-03-02T03:51:15;13.48;;;10.80;;
71759;SDS011;59919;48.112;16.280;2024-03-02T03:53:49;13.40;;;10.90;;
71759;SDS011;59919;48.112;16.280;2024-03-02T03:56:20;11.93;;;10.43;;
71759;SDS011;59919;48.112;16.280;2024-03-02T03:58:53;11.98;;;10.68;;
71759;SDS011;59919;48.112;16.280;2024-03-02T04:01:28;12.57;;;10.45;;
71759;SDS011;59919;48.112;16.280;2024-03-02T04:03:59;12.98;;;10.15;;
71759;SDS011;59919;48.112;16.280;2024-03-02T04:06:32;13.18;;;10.88;;
71759;SDS011;59919;48.112;16.280;2024-03-02T04:09:03;13.27;;;10.65;;
71759;SDS011;59919;48.112;16.280;2024-03-02T04:11:37;12.07;;;10.27;;
71759;SDS011;59919;48.112;16.280;2024-03-02T04:14:08;12.93;;;11.02;;
71759;SDS011;59919;48.112;16.280;2024-03-02T04:16:43;13.90;;;10.70;;
71759;SDS011;59919;48.112;16.280;2024-03-02T04:19:17;13.20;;;10.48;;
71759;SDS011;59919;48.112;16.280;2024-03-02T04:21:52;12.20;;;10.77;;
71759;SDS011;59919;48.112;16.280;2024-03-02T04:24:25;12.73;;;10.63;;
71759;SDS011;59919;48.112;16.280;2024-03-02T04:26:59;12.15;;;10.07;;
71759;SDS011;59919;48.112;16.280;2024-03-02T04:29:37;14.27;;;11.70;;
71759;SDS011;59919;48.112;16.280;2024-03-02T04:34:50;13.27;;;10.70;;
71759;SDS011;59919;48.112;16.280;2024-03-02T04:37:27;12.93;;;10.98;;
71759;SDS011;59919;48.112;16.280;2024-03-02T04:39:58;12.55;;;10.77;;
71759;SDS011;59919;48.112;16.280;2024-03-02T04:42:31;12.70;;;10.98;;
71759;SDS011;59919;48.112;16.280;2024-03-02T04:45:03;12.30;;;10.75;;
71759;SDS011;59919;48.112;16.280;2024-03-02T04:47:34;12.48;;;10.38;;
71759;SDS011;59919;48.112;16.280;2024-03-02T04:50:12;13.57;;;10.80;;
71759;SDS011;59919;48.112;16.280;2024-03-02T04:52:47;11.52;;;10.32;;
71759;SDS011;59919;48.112;16.280;2024-03-02T04:55:19;11.88;;;10.32;;
71759;SDS011;59919;48.112;16.280;2024-03-02T04:58:08;12.13;;;10.63;;
71759;SDS011;59919;48.112;16.280;2024-03-02T05:00:39;12.77;;;11.20;;
71759;SDS011;59919;48.112;16.280;2024-03-02T05:03:16;12.10;;;10.43;;
71759;SDS011;59919;48.112;16.280;2024-03-02T05:05:48;11.05;;;9.73;;
71759;SDS011;59919;48.112;16.280;2024-03-02T05:08:22;12.93;;;10.52;;
71759;SDS011;59919;48.112;16.280;2024-03-02T05:11:03;12.52;;;10.75;;
71759;SDS011;59919;48.112;16.280;2024-03-02T05:13:53;12.27;;;10.98;;
71759;SDS011;59919;48.112;16.280;2024-03-02T05:16:40;12.98;;;10.77;;
71759;SDS011;59919;48.112;16.280;2024-03-02T05:19:14;11.32;;;10.13;;
71759;SDS011;59919;48.112;16.280;2024-03-02T05:21:47;11.65;;;10.35;;
71759;SDS011;59919;48.112;16.280;2024-03-02T05:24:20;11.85;;;10.23;;
71759;SDS011;59919;48.112;16.280;2024-03-02T05:26:53;10.40;;;9.32;;
71759;SDS011;59919;48.112;16.280;2024-03-02T05:29:30;12.15;;;10.85;;
71759;SDS011;59919;48.112;16.280;2024-03-02T05:32:05;12.13;;;10.00;;
71759;SDS011;59919;48.112;16.280;2024-03-02T05:34:36;11.80;;;10.40;;
71759;SDS011;59919;48.112;16.280;2024-03-02T05:37:07;11.82;;;10.50;;
71759;SDS011;59919;48.112;16.280;2024-03-02T05:39:41;11.93;;;10.27;;
71759;SDS011;59919;48.112;16.280;2024-03-02T05:42:16;14.20;;;10.93;;
71759;SDS011;59919;48.112;16.280;2024-03-02T05:44:49;10.77;;;9.68;;
71759;SDS011;59919;48.112;16.280;2024-03-02T05:47:20;11.50;;;10.30;;
71759;SDS011;59919;48.112;16.280;2024-03-02T05:49:54;10.80;;;9.48;;
71759;SDS011;59919;48.112;16.280;2024-03-02T05:52:28;12.25;;;9.93;;
71759;SDS011;59919;48.112;16.280;2024-03-02T05:55:04;11.68;;;9.80;;
71759;SDS011;59919;48.112;16.280;2024-03-02T05:57:41;11.98;;;10.23;;
71759;SDS011;59919;48.112;16.280;2024-03-02T06:00:14;10.88;;;9.73;;
71759;SDS011;59919;48.112;16.280;2024-03-02T06:02:51;13.25;;;9.77;;
71759;SDS011;59919;48.112;16.280;2024-03-02T06:05:23;11.77;;;10.02;;
71759;SDS011;59919;48.112;16.280;2024-03-02T06:08:01;11.25;;;9.93;;
71759;SDS011;59919;48.112;16.280;2024-03-02T06:10:35;13.32;;;9.70;;
71759;SDS011;59919;48.112;16.280;2024-03-02T06:13:12;16.92;;;10.50;;
71759;SDS011;59919;48.112;16.280;2024-03-02T06:15:43;11.50;;;10.13;;
71759;SDS011;59919;48.112;16.280;2024-03-02T06:18:14;12.18;;;9.95;;
71759;SDS011;59919;48.112;16.280;2024-03-02T06:20:48;11.77;;;10.05;;
71759;SDS011;59919;48.112;16.280;2024-03-02T06:23:19;12.57;;;9.05;;
71759;SDS011;59919;48.112;16.280;2024-03-02T06:25:50;13.60;;;9.30;;
71759;SDS011;59919;48.112;16.280;2024-03-02T06:28:22;11.82;;;9.18;;
71759;SDS011;59919;48.112;16.280;2024-03-02T06:30:55;13.35;;;9.77;;
71759;SDS011;59919;48.112;16.280;2024-03-02T06:33:31;11.40;;;10.20;;
71759;SDS011;59919;48.112;16.280;2024-03-02T06:36:02;11.25;;;10.00;;
71759;SDS011;59919;48.112;16.280;2024-03-02T06:38:41;12.25;;;9.35;;
71759;SDS011;59919;48.112;16.280;2024-03-02T06:41:14;11.15;;;9.35;;
71759;SDS011;59919;48.112;16.280;2024-03-02T06:43:49;15.93;;;9.85;;
71759;SDS011;59919;48.112;16.280;2024-03-02T06:46:29;12.20;;;9.40;;
71759;SDS011;59919;48.112;16.280;2024-03-02T06:49:03;11.65;;;9.73;;
71759;SDS011;59919;48.112;16.280;2024-03-02T06:51:35;10.63;;;9.02;;
71759;SDS011;59919;48.112;16.280;2024-03-02T06:54:06;10.32;;;8.73;;
71759;SDS011;59919;48.112;16.280;2024-03-02T06:56:40;11.88;;;9.32;;
71759;SDS011;59919;48.112;16.280;2024-03-02T06:59:13;10.60;;;8.85;;
71759;SDS011;59919;48.112;16.280;2024-03-02T07:01:50;12.20;;;9.30;;
71759;SDS011;59919;48.112;16.280;2024-03-02T07:04:21;13.90;;;8.73;;
71759;SDS011;59919;48.112;16.280;2024-03-02T07:06:52;16.67;;;8.73;;
71759;SDS011;59919;48.112;16.280;2024-03-02T07:09:26;13.32;;;8.73;;
71759;SDS011;59919;48.112;16.280;2024-03-02T07:12:03;10.05;;;8.57;;
71759;SDS011;59919;48.112;16.280;2024-03-02T07:14:34;11.68;;;9.23;;
71759;SDS011;59919;48.112;16.280;2024-03-02T07:17:26;11.38;;;9.05;;
71759;SDS011;59919;48.112;16.280;2024-03-02T07:19:59;14.65;;;9.10;;
71759;SDS011;59919;48.112;16.280;2024-03-02T07:22:34;11.27;;;8.98;;
71759;SDS011;59919;48.112;16.280;2024-03-02T07:25:07;18.30;;;8.32;;
71759;SDS011;59919;48.112;16.280;2024-03-02T07:27:46;12.65;;;8.65;;
71759;SDS011;59919;48.112;16.280;2024-03-02T07:30:20;13.73;;;8.00;;
71759;SDS011;59919;48.112;16.280;2024-03-02T07:32:51;12.15;;;8.90;;
71759;SDS011;59919;48.112;16.280;2024-03-02T07:35:22;15.40;;;8.70;;
71759;SDS011;59919;48.112;16.280;2024-03-02T07:37:57;12.55;;;9.25;;
71759;SDS011;59919;48.112;16.280;2024-03-02T07:40:29;14.32;;;8.27;;
71759;SDS011;59919;48.112;16.280;2024-03-02T07:43:05;13.80;;;8.88;;
71759;SDS011;59919;48.112;16.280;2024-03-02T07:45:42;11.43;;;8.35;;
71759;SDS011;59919;48.112;16.280;2024-03-02T07:48:19;9.10;;;8.07;;
71759;SDS011;59919;48.112;16.280;2024-03-02T07:50:56;13.27;;;7.93;;
71759;SDS011;59919;48.112;16.280;2024-03-02T07:53:29;11.95;;;8.38;;
71759;SDS011;59919;48.112;16.280;2024-03-02T07:56:01;10.18;;;8.27;;
71759;SDS011;59919;48.112;16.280;2024-03-02T07:58:36;10.77;;;7.72;;
71759;SDS011;59919;48.112;16.280;2024-03-02T08:01:07;11.02;;;8.43;;
71759;SDS011;59919;48.112;16.280;2024-03-02T08:03:39;9.55;;;7.75;;
71759;SDS011;59919;48.112;16.280;2024-03-02T08:06:24;10.02;;;8.18;;
71759;SDS011;59919;48.112;16.280;2024-03-02T08:08:59;8.75;;;7.82;;
71759;SDS011;59919;48.112;16.280;2024-03-02T08:11:32;9.20;;;7.72;;
71759;SDS011;59919;48.112;16.280;2024-03-02T08:14:09;11.32;;;8.30;;
71759;SDS011;59919;48.112;16.280;2024-03-02T08:16:42;9.00;;;7.75;;
71759;SDS011;59919;48.112;16.280;2024-03-02T08:19:16;10.80;;;7.60;;
71759;SDS011;59919;48.112;16.280;2024-03-02T08:21:47;9.43;;;7.38;;
71759;SDS011;59919;48.112;16.280;2024-03-02T08:24:18;10.05;;;7.90;;
71759;SDS011;59919;48.112;16.280;2024-03-02T08:26:49;8.95;;;8.05;;
71759;SDS011;59919;48.112;16.280;2024-03-02T08:29:22;8.60;;;7.70;;
71759;SDS011;59919;48.112;16.280;2024-03-02T08:31:56;8.77;;;7.40;;
71759;SDS011;59919;48.112;16.280;2024-03-02T08:34:29;9.85;;;7.50;;
71759;SDS011;59919;48.112;16.280;2024-03-02T08:37:03;9.40;;;7.50;;
71759;SDS011;59919;48.112;16.280;2024-03-02T08:39:37;9.02;;;7.50;;
71759;SDS011;59919;48.112;16.280;2024-03-02T08:42:08;10.40;;;7.93;;
71759;SDS011;59919;48.112;16.280;2024-03-02T08:44:42;9.07;;;8.18;;
71759;SDS011;59919;48.112;16.280;2024-03-02T08:47:16;8.75;;;7.85;;
71759;SDS011;59919;48.112;16.280;2024-03-02T08:49:48;9.90;;;8.13;;
71759;SDS011;59919;48.112;16.280;2024-03-02T08:52:21;8.52;;;7.68;;
71759;SDS011;59919;48.112;16.280;2024-03-02T08:54:52;9.00;;;7.25;;
71759;SDS011;59919;48.112;16.280;2024-03-02T08:57:24;10.18;;;7.68;;
71759;SDS011;59919;48.112;16.280;2024-03-02T08:59:57;8.85;;;7.40;;
71759;SDS011;59919;48.112;16.280;2024-03-02T09:02:29;9.45;;;8.02;;
71759;SDS011;59919;48.112;16.280;2024-03-02T09:05:02;13.57;;;7.65;;
71759;SDS011;59919;48.112;16.280;2024-03-02T09:07:37;11.88;;;8.20;;
71759;SDS011;59919;48.112;16.280;2024-03-02T09:10:09;10.50;;;7.63;;
71759;SDS011;59919;48.112;16.280;2024-03-02T09:12:43;13.40;;;8.25;;
71759;SDS011;59919;48.112;16.280;2024-03-02T09:15:15;11.82;;;7.50;;
71759;SDS011;59919;48.112;16.280;2024-03-02T09:17:48;9.63;;;7.63;;
71759;SDS011;59919;48.112;16.280;2024-03-02T09:20:23;11.10;;;8.32;;
71759;SDS011;59919;48.112;16.280;2024-03-02T09:22:57;10.85;;;8.05;;
71759;SDS011;59919;48.112;16.280;2024-03-02T09:25:33;9.90;;;8.00;;
71759;SDS011;59919;48.112;16.280;2024-03-02T09:28:04;8.48;;;7.20;;
71759;SDS011;59919;48.112;16.280;2024-03-02T09:30:38;9.65;;;8.48;;
71759;SDS011;59919;48.112;16.280;2024-03-02T09:33:14;13.32;;;8.15;;
71759;SDS011;59919;48.112;16.280;2024-03-02T09:35:47;13.25;;;8.43;;
71759;SDS011;59919;48.112;16.280;2024-03-02T09:38:21;11.55;;;8.27;;
71759;SDS011;59919;48.112;16.280;2024-03-02T09:40:55;12.23;;;7.65;;
71759;SDS011;59919;48.112;16.280;2024-03-02T09:43:26;13.07;;;8.30;;
71759;SDS011;59919;48.112;16.280;2024-03-02T09:45:57;38.80;;;9.63;;
71759;SDS011;59919;48.112;16.280;2024-03-02T09:48:31;11.50;;;8.13;;
71759;SDS011;59919;48.112;16.280;2024-03-02T09:51:02;13.57;;;8.68;;
71759;SDS011;59919;48.112;16.280;2024-03-02T09:53:35;13.30;;;9.02;;
71759;SDS011;59919;48.112;16.280;2024-03-02T09:56:09;14.77;;;8.52;;
71759;SDS011;59919;48.112;16.280;2024-03-02T09:58:40;10.57;;;7.72;;
71759;SDS011;59919;48.112;16.280;2024-03-02T10:01:16;10.85;;;8.25;;
71759;SDS011;59919;48.112;16.280;2024-03-02T10:03:50;12.38;;;8.57;;
71759;SDS011;59919;48.112;16.280;2024-03-02T10:06:23;11.30;;;9.00;;
71759;SDS011;59919;48.112;16.280;2024-03-02T10:08:55;12.60;;;8.27;;
71759;SDS011;59919;48.112;16.280;2024-03-02T10:11:33;10.85;;;8.23;;
71759;SDS011;59919;48.112;16.280;2024-03-02T10:14:12;13.40;;;9.48;;
71759;SDS011;59919;48.112;16.280;2024-03-02T10:16:47;10.38;;;8.85;;
71759;SDS011;59919;48.112;16.280;2024-03-02T10:21:52;11.48;;;8.82;;
71759;SDS011;59919;48.112;16.280;2024-03-02T10:24:24;11.75;;;9.15;;
71759;SDS011;59919;48.112;16.280;2024-03-02T10:26:56;12.32;;;8.80;;
71759;SDS011;59919;48.112;16.280;2024-03-02T10:29:30;10.73;;;8.85;;
71759;SDS011;59919;48.112;16.280;2024-03-02T10:32:01;10.80;;;9.02;;
71759;SDS011;59919;48.112;16.280;2024-03-02T10:34:37;13.32;;;8.98;;
71759;SDS011;59919;48.112;16.280;2024-03-02T10:37:14;12.48;;;9.32;;
71759;SDS011;59919;48.112;16.280;2024-03-02T10:39:50;10.30;;;8.85;;
71759;SDS011;59919;48.112;16.280;2024-03-02T10:42:27;10.32;;;8.48;;
71759;SDS011;59919;48.112;16.280;2024-03-02T10:44:59;11.02;;;8.73;;
71759;SDS011;59919;48.112;16.280;2024-03-02T10:47:30;12.43;;;9.00;;
71759;SDS011;59919;48.112;16.280;2024-03-02T10:50:09;10.15;;;8.48;;
71759;SDS011;59919;48.112;16.280;2024-03-02T10:52:42;10.48;;;8.77;;
71759;SDS011;59919;48.112;16.280;2024-03-02T10:55:13;14.68;;;9.73;;
71759;SDS011;59919;48.112;16.280;2024-03-02T10:57:51;11.93;;;9.27;;
71759;SDS011;59919;48.112;16.280;2024-03-02T11:00:30;10.50;;;8.93;;
71759;SDS011;59919;48.112;16.280;2024-03-02T11:03:06;10.80;;;8.23;;
71759;SDS011;59919;48.112;16.280;2024-03-02T11:05:43;10.90;;;9.13;;
71759;SDS011;59919;48.112;16.280;2024-03-02T11:08:18;12.50;;;9.20;;
71759;SDS011;59919;48.112;16.280;2024-03-02T11:10:52;12.40;;;10.00;;
71759;SDS011;59919;48.112;16.280;2024-03-02T11:13:31;11.18;;;8.68;;
71759;SDS011;59919;48.112;16.280;2024-03-02T11:16:06;13.95;;;9.30;;
71759;SDS011;59919;48.112;16.280;2024-03-02T11:19:04;11.68;;;9.45;;
71759;SDS011;59919;48.112;16.280;2024-03-02T11:21:41;12.80;;;9.23;;
71759;SDS011;59919;48.112;16.280;2024-03-02T11:27:06;17.88;;;9.38;;
71759;SDS011;59919;48.112;16.280;2024-03-02T11:29:42;16.05;;;9.60;;
71759;SDS011;59919;48.112;16.280;2024-03-02T11:32:16;13.80;;;9.98;;
71759;SDS011;59919;48.112;16.280;2024-03-02T11:34:50;15.98;;;9.63;;
71759;SDS011;59919;48.112;16.280;2024-03-02T11:37:26;15.00;;;9.10;;
71759;SDS011;59919;48.112;16.280;2024-03-02T11:39:58;15.20;;;9.80;;
71759;SDS011;59919;48.112;16.280;2024-03-02T11:42:29;14.43;;;9.88;;
71759;SDS011;59919;48.112;16.280;2024-03-02T11:45:00;17.08;;;10.20;;
71759;SDS011;59919;48.112;16.280;2024-03-02T11:47:31;22.98;;;11.38;;
71759;SDS011;59919;48.112;16.280;2024-03-02T11:50:05;17.25;;;11.25;;
71759;SDS011;59919;48.112;16.280;2024-03-02T11:52:38;20.27;;;13.93;;
71759;SDS011;59919;48.112;16.280;2024-03-02T11:55:12;23.95;;;13.60;;
71759;SDS011;59919;48.112;16.280;2024-03-02T11:57:47;27.50;;;14.45;;
71759;SDS011;59919;48.112;16.280;2024-03-02T12:00:20;29.77;;;16.65;;
71759;SDS011;59919;48.112;16.280;2024-03-02T12:03:04;39.08;;;18.25;;
71759;SDS011;59919;48.112;16.280;2024-03-02T12:05:37;42.28;;;19.60;;
71759;SDS011;59919;48.112;16.280;2024-03-02T12:08:14;46.50;;;26.70;;
71759;SDS011;59919;48.112;16.280;2024-03-02T12:11:01;116.68;;;79.05;;
71759;SDS011;59919;48.112;16.280;2024-03-02T12:13:33;122.80;;;85.13;;
71759;SDS011;59919;48.112;16.280;2024-03-02T12:16:06;104.93;;;69.25;;
71759;SDS011;59919;48.112;16.280;2024-03-02T12:18:37;99.75;;;67.13;;
71759;SDS011;59919;48.112;16.280;2024-03-02T12:21:09;93.65;;;61.22;;
71759;SDS011;59919;48.112;16.280;2024-03-02T12:23:42;98.90;;;63.47;;
71759;SDS011;59919;48.112;16.280;2024-03-02T12:26:14;89.78;;;57.17;;
71759;SDS011;59919;48.112;16.280;2024-03-02T12:28:48;93.22;;;61.25;;
71759;SDS011;59919;48.112;16.280;2024-03-02T12:31:24;90.97;;;61.25;;
71759;SDS011;59919;48.112;16.280;2024-03-02T12:33:59;90.53;;;59.70;;
71759;SDS011;59919;48.112;16.280;2024-03-02T12:36:30;85.65;;;56.88;;
71759;SDS011;59919;48.112;16.280;2024-03-02T12:39:03;80.75;;;54.22;;
71759;SDS011;59919;48.112;16.280;2024-03-02T12:41:35;89.93;;;56.45;;
71759;SDS011;59919;48.112;16.280;2024-03-02T12:44:08;82.82;;;50.92;;
71759;SDS011;59919;48.112;16.280;2024-03-02T12:46:39;77.97;;;51.45;;
71759;SDS011;59919;48.112;16.280;2024-03-02T12:49:14;77.32;;;51.35;;
71759;SDS011;59919;48.112;16.280;2024-03-02T12:51:53;71.47;;;49.65;;
71759;SDS011;59919;48.112;16.280;2024-03-02T12:54:27;72.00;;;48.28;;
71759;SDS011;59919;48.112;16.280;2024-03-02T12:57:00;71.25;;;46.88;;
71759;SDS011;59919;48.112;16.280;2024-03-02T12:59:35;69.85;;;45.88;;
71759;SDS011;59919;48.112;16.280;2024-03-02T13:02:07;68.10;;;44.90;;
71759;SDS011;59919;48.112;16.280;2024-03-02T13:04:57;63.05;;;41.83;;
71759;SDS011;59919;48.112;16.280;2024-03-02T13:07:32;64.43;;;43.05;;
71759;SDS011;59919;48.112;16.280;2024-03-02T13:10:07;61.67;;;41.17;;
71759;SDS011;59919;48.112;16.280;2024-03-02T13:12:41;62.78;;;41.47;;
71759;SDS011;59919;48.112;16.280;2024-03-02T13:15:12;57.97;;;39.65;;
71759;SDS011;59919;48.112;16.280;2024-03-02T13:17:44;58.63;;;38.85;;
71759;SDS011;59919;48.112;16.280;2024-03-02T13:20:18;57.30;;;37.90;;
71759;SDS011;59919;48.112;16.280;2024-03-02T13:22:50;58.55;;;37.80;;
71759;SDS011;59919;48.112;16.280;2024-03-02T13:25:22;57.33;;;37.60;;
71759;SDS011;59919;48.112;16.280;2024-03-02T13:27:53;55.30;;;38.00;;
71759;SDS011;59919;48.112;16.280;2024-03-02T13:30:27;49.53;;;35.03;;
71759;SDS011;59919;48.112;16.280;2024-03-02T13:32:59;56.25;;;37.05;;
71759;SDS011;59919;48.112;16.280;2024-03-02T13:35:30;55.00;;;34.80;;
71759;SDS011;59919;48.112;16.280;2024-03-02T13:38:04;47.55;;;34.70;;
71759;SDS011;59919;48.112;16.280;2024-03-02T13:40:38;50.72;;;34.30;;
71759;SDS011;59919;48.112;16.280;2024-03-02T13:43:11;51.47;;;33.83;;
71759;SDS011;59919;48.112;16.280;2024-03-02T13:45:45;52.30;;;33.63;;
71759;SDS011;59919;48.112;16.280;2024-03-02T13:48:16;47.65;;;32.67;;
71759;SDS011;59919;48.112;16.280;2024-03-02T13:50:49;50.10;;;32.10;;
71759;SDS011;59919;48.112;16.280;2024-03-02T13:53:24;49.58;;;32.42;;
71759;SDS011;59919;48.112;16.280;2024-03-02T13:55:55;45.75;;;30.90;;
71759;SDS011;59919;48.112;16.280;2024-03-02T13:58:29;49.53;;;30.17;;
71759;SDS011;59919;48.112;16.280;2024-03-02T14:01:00;42.65;;;29.70;;
71759;SDS011;59919;48.112;16.280;2024-03-02T14:03:35;42.75;;;28.83;;
71759;SDS011;59919;48.112;16.280;2024-03-02T14:06:09;44.13;;;28.85;;
71759;SDS011;59919;48.112;16.280;2024-03-02T14:08:40;39.92;;;27.83;;
71759;SDS011;59919;48.112;16.280;2024-03-02T14:11:15;35.28;;;27.10;;
71759;SDS011;59919;48.112;16.280;2024-03-02T14:13:48;40.30;;;27.33;;
71759;SDS011;59919;48.112;16.280;2024-03-02T14:16:24;37.97;;;26.95;;
71759;SDS011;59919;48.112;16.280;2024-03-02T14:18:55;39.30;;;27.02;;
71759;SDS011;59919;48.112;16.280;2024-03-02T14:21:30;35.30;;;24.85;;
71759;SDS011;59919;48.112;16.280;2024-03-02T14:24:04;34.50;;;24.00;;
71759;SDS011;59919;48.112;16.280;2024-03-02T14:26:35;38.67;;;24.98;;
71759;SDS011;59919;48.112;16.280;2024-03-02T14:29:13;33.42;;;24.40;;
71759;SDS011;59919;48.112;16.280;2024-03-02T14:31:46;35.90;;;24.75;;
71759;SDS011;59919;48.112;16.280;2024-03-02T14:34:20;36.88;;;25.17;;
71759;SDS011;59919;48.112;16.280;2024-03-02T14:36:51;32.95;;;23.95;;
71759;SDS011;59919;48.112;16.280;2024-03-02T14:39:30;36.58;;;25.85;;
71759;SDS011;59919;48.112;16.280;2024-03-02T14:42:05;30.38;;;23.05;;
71759;SDS011;59919;48.112;16.280;2024-03-02T14:44:39;32.70;;;23.40;;
71759;SDS011;59919;48.112;16.280;2024-03-02T14:47:15;33.13;;;22.42;;
71759;SDS011;59919;48.112;16.280;2024-03-02T14:49:49;32.45;;;22.98;;
71759;SDS011;59919;48.112;16.280;2024-03-02T14:52:26;33.30;;;23.63;;
71759;SDS011;59919;48.112;16.280;2024-03-02T14:55:00;32.10;;;23.88;;
71759;SDS011;59919;48.112;16.280;2024-03-02T14:57:34;29.65;;;21.67;;
71759;SDS011;59919;48.112;16.280;2024-03-02T15:00:07;29.50;;;21.95;;
71759;SDS011;59919;48.112;16.280;2024-03-02T15:02:42;30.80;;;22.15;;